sensor_id;sensor_type;location;lat;lon;timestamp;pressure;altitude;pressure_sealevel;temperature
53412;BMP280;39307;52.870;13.660;2023-04-01T00:01:41;99123.75;;;8.93
53412;BMP280;39307;52.870;13.660;2023-04-01T00:04:07;99119.31;;;8.94
53412;BMP280;39307;52.870;13.660;2023-04-01T00:06:33;99123.75;;;8.93
53412;BMP280;39307;52.870;13.660;2023-04-01T00:09:00;99129.19;;;8.92
53412;BMP280;39307;52.870;13.660;2023-04-01T00:11:26;99124.97;;;8.91
53412;BMP280;39307;52.870;13.660;2023-04-01T00:13:52;99122.34;;;8.91
53412;BMP280;39307;52.870;13.660;2023-04-01T00:16:19;99117.97;;;8.92
53412;BMP280;39307;52.870;13.660;2023-04-01T00:18:45;99124.97;;;8.91
53412;BMP280;39307;52.870;13.660;2023-04-01T00:21:11;99124.97;;;8.91
53412;BMP280;39307;52.870;13.660;2023-04-01T00:23:37;99128.41;;;8.92
53412;BMP280;39307;52.870;13.660;2023-04-01T00:26:04;99118.16;;;8.90
53412;BMP280;39307;52.870;13.660;2023-04-01T00:28:30;99111.91;;;8.91
53412;BMP280;39307;52.870;13.660;2023-04-01T00:30:56;99120.75;;;8.90
53412;BMP280;39307;52.870;13.660;2023-04-01T00:33:23;99118.16;;;8.90
53412;BMP280;39307;52.870;13.660;2023-04-01T00:35:49;99120.56;;;8.92
53412;BMP280;39307;52.870;13.660;2023-04-01T00:38:15;99114.09;;;8.94
53412;BMP280;39307;52.870;13.660;2023-04-01T00:40:43;99123.72;;;9.00
53412;BMP280;39307;52.870;13.660;2023-04-01T00:43:18;99121.75;;;8.95
53412;BMP280;39307;52.870;13.660;2023-04-01T00:45:45;99119.75;;;8.91
53412;BMP280;39307;52.870;13.660;2023-04-01T00:48:17;99123.78;;;8.87
53412;BMP280;39307;52.870;13.660;2023-04-01T00:50:50;99123.00;;;8.87
53412;BMP280;39307;52.870;13.660;2023-04-01T00:53:19;99125.00;;;8.85
53412;BMP280;39307;52.870;13.660;2023-04-01T00:55:54;99125.00;;;8.85
53412;BMP280;39307;52.870;13.660;2023-04-01T00:58:24;99124.22;;;8.84
53412;BMP280;39307;52.870;13.660;2023-04-01T01:00:52;99125.59;;;8.87
53412;BMP280;39307;52.870;13.660;2023-04-01T01:03:19;99121.41;;;8.86
53412;BMP280;39307;52.870;13.660;2023-04-01T01:06:07;99118.56;;;8.87
53412;BMP280;39307;52.870;13.660;2023-04-01T01:11:08;99116.56;;;8.89
53412;BMP280;39307;52.870;13.660;2023-04-01T01:13:48;99119.97;;;8.90
53412;BMP280;39307;52.870;13.660;2023-04-01T01:16:29;99120.16;;;8.88
53412;BMP280;39307;52.870;13.660;2023-04-01T01:19:19;99124.41;;;8.89
53412;BMP280;39307;52.870;13.660;2023-04-01T01:22:08;99123.78;;;8.87
53412;BMP280;39307;52.870;13.660;2023-04-01T01:27:21;99119.38;;;8.88
53412;BMP280;39307;52.870;13.660;2023-04-01T01:30:11;99119.97;;;8.90
53412;BMP280;39307;52.870;13.660;2023-04-01T01:33:06;99120.75;;;8.90
53412;BMP280;39307;52.870;13.660;2023-04-01T01:35:48;99128.59;;;8.90
53412;BMP280;39307;52.870;13.660;2023-04-01T01:38:22;99129.38;;;8.91
53412;BMP280;39307;52.870;13.660;2023-04-01T01:40:51;99130.19;;;8.91
53412;BMP280;39307;52.870;13.660;2023-04-01T01:43:24;99133.03;;;8.90
53412;BMP280;39307;52.870;13.660;2023-04-01T01:45:58;99118.16;;;8.90
53412;BMP280;39307;52.870;13.660;2023-04-01T01:48:26;99124.41;;;8.89
53412;BMP280;39307;52.870;13.660;2023-04-01T01:50:53;99129.63;;;8.89
53412;BMP280;39307;52.870;13.660;2023-04-01T01:53:19;99125.38;;;8.88
53412;BMP280;39307;52.870;13.660;2023-04-01T01:55:47;99125.59;;;8.87
53412;BMP280;39307;52.870;13.660;2023-04-01T02:00:46;99131.84;;;8.86
53412;BMP280;39307;52.870;13.660;2023-04-01T02:03:15;99137.84;;;8.86
53412;BMP280;39307;52.870;13.660;2023-04-01T02:05:43;99130.22;;;8.85
53412;BMP280;39307;52.870;13.660;2023-04-01T02:08:15;99137.84;;;8.86
53412;BMP280;39307;52.870;13.660;2023-04-01T02:10:56;99130.03;;;8.86
53412;BMP280;39307;52.870;13.660;2023-04-01T02:13:35;99134.66;;;8.84
53412;BMP280;39307;52.870;13.660;2023-04-01T02:16:28;99136.25;;;8.85
53412;BMP280;39307;52.870;13.660;2023-04-01T02:18:54;99136.25;;;8.85
53412;BMP280;39307;52.870;13.660;2023-04-01T02:21:22;99135.44;;;8.85
53412;BMP280;39307;52.870;13.660;2023-04-01T02:23:51;99137.44;;;8.89
53412;BMP280;39307;52.870;13.660;2023-04-01T02:26:18;99139.44;;;8.87
53412;BMP280;39307;52.870;13.660;2023-04-01T02:28:46;99137.03;;;8.92
53412;BMP280;39307;52.870;13.660;2023-04-01T02:31:14;99134.78;;;8.95
53412;BMP280;39307;52.870;13.660;2023-04-01T02:33:42;99134.78;;;8.95
53412;BMP280;39307;52.870;13.660;2023-04-01T02:36:16;99134.59;;;8.91
53412;BMP280;39307;52.870;13.660;2023-04-01T02:38:43;99141.22;;;8.93
53412;BMP280;39307;52.870;13.660;2023-04-01T02:41:10;99148.25;;;8.93
53412;BMP280;39307;52.870;13.660;2023-04-01T02:43:37;99153.66;;;8.91
53412;BMP280;39307;52.870;13.660;2023-04-01T02:46:04;99147.88;;;8.89
53412;BMP280;39307;52.870;13.660;2023-04-01T02:48:30;99155.72;;;8.89
53412;BMP280;39307;52.870;13.660;2023-04-01T02:50:56;99153.28;;;8.88
53412;BMP280;39307;52.870;13.660;2023-04-01T02:53:22;99166.34;;;8.88
53412;BMP280;39307;52.870;13.660;2023-04-01T02:55:49;99159.31;;;8.88
53412;BMP280;39307;52.870;13.660;2023-04-01T02:58:15;99160.94;;;8.89
53412;BMP280;39307;52.870;13.660;2023-04-01T03:00:41;99169.75;;;8.88
53412;BMP280;39307;52.870;13.660;2023-04-01T03:03:08;99173.19;;;8.89
53412;BMP280;39307;52.870;13.660;2023-04-01T03:05:35;99167.13;;;8.88
53412;BMP280;39307;52.870;13.660;2023-04-01T03:08:02;99167.13;;;8.88
53412;BMP280;39307;52.870;13.660;2023-04-01T03:10:28;99172.75;;;8.92
53412;BMP280;39307;52.870;13.660;2023-04-01T03:12:54;99176.16;;;8.92
53412;BMP280;39307;52.870;13.660;2023-04-01T03:15:20;99169.31;;;8.91
53412;BMP280;39307;52.870;13.660;2023-04-01T03:17:47;99168.53;;;8.91
53412;BMP280;39307;52.870;13.660;2023-04-01T03:20:13;99173.75;;;8.91
53412;BMP280;39307;52.870;13.660;2023-04-01T03:22:40;99174.53;;;8.91
53412;BMP280;39307;52.870;13.660;2023-04-01T03:25:06;99170.94;;;8.92
53412;BMP280;39307;52.870;13.660;2023-04-01T03:27:33;99182.78;;;8.94
53412;BMP280;39307;52.870;13.660;2023-04-01T03:29:59;99182.78;;;8.94
53412;BMP280;39307;52.870;13.660;2023-04-01T03:32:26;99183.56;;;8.95
53412;BMP280;39307;52.870;13.660;2023-04-01T03:34:52;99179.16;;;8.95
53412;BMP280;39307;52.870;13.660;2023-04-01T03:37:18;99185.78;;;8.98
53412;BMP280;39307;52.870;13.660;2023-04-01T03:39:44;99184.34;;;9.02
53412;BMP280;39307;52.870;13.660;2023-04-01T03:42:11;99185.31;;;9.07
53412;BMP280;39307;52.870;13.660;2023-04-01T03:44:38;99187.50;;;9.10
53412;BMP280;39307;52.870;13.660;2023-04-01T03:47:04;99187.94;;;9.07
53412;BMP280;39307;52.870;13.660;2023-04-01T03:49:30;99185.72;;;9.04
53412;BMP280;39307;52.870;13.660;2023-04-01T03:51:56;99194.09;;;9.19
53412;BMP280;39307;52.870;13.660;2023-04-01T03:54:22;99199.75;;;9.10
53412;BMP280;39307;52.870;13.660;2023-04-01T03:56:49;99200.75;;;9.09
53412;BMP280;39307;52.870;13.660;2023-04-01T03:59:15;99203.75;;;9.12
53412;BMP280;39307;52.870;13.660;2023-04-01T04:01:41;99210.63;;;9.07
53412;BMP280;39307;52.870;13.660;2023-04-01T04:04:11;99210.63;;;9.07
53412;BMP280;39307;52.870;13.660;2023-04-01T04:06:37;99204.56;;;9.13
53412;BMP280;39307;52.870;13.660;2023-04-01T04:09:04;99216.94;;;9.23
53412;BMP280;39307;52.870;13.660;2023-04-01T04:11:31;99218.38;;;9.20
53412;BMP280;39307;52.870;13.660;2023-04-01T04:13:57;99222.41;;;9.16
53412;BMP280;39307;52.870;13.660;2023-04-01T04:16:23;99217.41;;;9.14
53412;BMP280;39307;52.870;13.660;2023-04-01T04:18:49;99216.38;;;9.15
53412;BMP280;39307;52.870;13.660;2023-04-01T04:21:16;99221.13;;;9.24
53412;BMP280;39307;52.870;13.660;2023-04-01T04:23:42;99225.31;;;9.32
53412;BMP280;39307;52.870;13.660;2023-04-01T04:26:11;99224.63;;;9.49
53412;BMP280;39307;52.870;13.660;2023-04-01T04:28:38;99226.78;;;9.28
53412;BMP280;39307;52.870;13.660;2023-04-01T04:31:04;99229.19;;;9.23
53412;BMP280;39307;52.870;13.660;2023-04-01T04:33:31;99234.91;;;9.07
53412;BMP280;39307;52.870;13.660;2023-04-01T04:35:58;99229.00;;;9.18
53412;BMP280;39307;52.870;13.660;2023-04-01T04:38:25;99231.16;;;9.34
53412;BMP280;39307;52.870;13.660;2023-04-01T04:40:51;99239.59;;;9.29
53412;BMP280;39307;52.870;13.660;2023-04-01T04:43:18;99238.09;;;9.09
53412;BMP280;39307;52.870;13.660;2023-04-01T04:45:45;99242.38;;;8.91
53412;BMP280;39307;52.870;13.660;2023-04-01T04:48:13;99244.59;;;8.94
53412;BMP280;39307;52.870;13.660;2023-04-01T04:50:40;99249.06;;;8.81
53412;BMP280;39307;52.870;13.660;2023-04-01T04:53:08;99251.88;;;8.86
53412;BMP280;39307;52.870;13.660;2023-04-01T04:55:35;99264.63;;;9.00
53412;BMP280;39307;52.870;13.660;2023-04-01T04:58:02;99263.28;;;8.85
53412;BMP280;39307;52.870;13.660;2023-04-01T05:00:28;99265.47;;;8.94
53412;BMP280;39307;52.870;13.660;2023-04-01T05:02:54;99260.06;;;8.89
53412;BMP280;39307;52.870;13.660;2023-04-01T05:05:20;99266.88;;;8.90
53412;BMP280;39307;52.870;13.660;2023-04-01T05:07:46;99271.09;;;8.91
53412;BMP280;39307;52.870;13.660;2023-04-01T05:10:13;99271.13;;;8.78
53412;BMP280;39307;52.870;13.660;2023-04-01T05:12:39;99280.44;;;8.62
53412;BMP280;39307;52.870;13.660;2023-04-01T05:15:06;99272.97;;;8.71
53412;BMP280;39307;52.870;13.660;2023-04-01T05:17:32;99286.84;;;8.65
53412;BMP280;39307;52.870;13.660;2023-04-01T05:19:58;99286.03;;;8.65
53412;BMP280;39307;52.870;13.660;2023-04-01T05:22:24;99293.06;;;8.64
53412;BMP280;39307;52.870;13.660;2023-04-01T05:24:50;99288.88;;;8.51
53412;BMP280;39307;52.870;13.660;2023-04-01T05:27:17;99301.31;;;8.42
53412;BMP280;39307;52.870;13.660;2023-04-01T05:29:43;99294.50;;;8.35
53412;BMP280;39307;52.870;13.660;2023-04-01T05:32:09;99290.72;;;8.31
53412;BMP280;39307;52.870;13.660;2023-04-01T05:34:35;99305.75;;;8.23
53412;BMP280;39307;52.870;13.660;2023-04-01T05:37:01;99298.72;;;8.30
53412;BMP280;39307;52.870;13.660;2023-04-01T05:39:28;99298.31;;;8.33
53412;BMP280;39307;52.870;13.660;2023-04-01T05:41:54;99303.34;;;8.34
53412;BMP280;39307;52.870;13.660;2023-04-01T05:44:20;99300.72;;;8.28
53412;BMP280;39307;52.870;13.660;2023-04-01T05:46:46;99306.94;;;8.33
53412;BMP280;39307;52.870;13.660;2023-04-01T05:49:12;99307.56;;;8.29
53412;BMP280;39307;52.870;13.660;2023-04-01T05:51:39;99311.97;;;8.35
53412;BMP280;39307;52.870;13.660;2023-04-01T05:54:06;99315.97;;;8.11
53412;BMP280;39307;52.870;13.660;2023-04-01T05:56:32;99323.38;;;8.08
53412;BMP280;39307;52.870;13.660;2023-04-01T05:58:58;99326.16;;;8.00
53412;BMP280;39307;52.870;13.660;2023-04-01T06:01:24;99333.59;;;8.09
53412;BMP280;39307;52.870;13.660;2023-04-01T06:03:50;99322.59;;;8.14
53412;BMP280;39307;52.870;13.660;2023-04-01T06:06:27;99327.81;;;8.07
53412;BMP280;39307;52.870;13.660;2023-04-01T06:08:56;99332.59;;;8.04
53412;BMP280;39307;52.870;13.660;2023-04-01T06:11:34;99336.63;;;8.26
53412;BMP280;39307;52.870;13.660;2023-04-01T06:25:49;99348.81;;;8.00
53412;BMP280;39307;52.870;13.660;2023-04-01T06:48:39;99375.72;;;8.32
53412;BMP280;39307;52.870;13.660;2023-04-01T06:51:19;99380.94;;;8.26
53412;BMP280;39307;52.870;13.660;2023-04-01T06:54:02;99384.34;;;8.13
53412;BMP280;39307;52.870;13.660;2023-04-01T06:56:29;99384.75;;;8.10
53412;BMP280;39307;52.870;13.660;2023-04-01T06:59:12;99391.94;;;8.21
53412;BMP280;39307;52.870;13.660;2023-04-01T07:01:42;99391.94;;;8.15
53412;BMP280;39307;52.870;13.660;2023-04-01T07:04:18;99391.28;;;8.00
53412;BMP280;39307;52.870;13.660;2023-04-01T07:09:26;99402.72;;;7.93
53412;BMP280;39307;52.870;13.660;2023-04-01T07:12:01;99397.66;;;7.78
53412;BMP280;39307;52.870;13.660;2023-04-01T07:14:41;99401.91;;;7.86
53412;BMP280;39307;52.870;13.660;2023-04-01T07:20:03;99398.78;;;8.16
53412;BMP280;39307;52.870;13.660;2023-04-01T07:22:45;99399.50;;;7.91
53412;BMP280;39307;52.870;13.660;2023-04-01T07:25:22;99409.63;;;8.19
53412;BMP280;39307;52.870;13.660;2023-04-01T07:27:59;99403.13;;;8.03
53412;BMP280;39307;52.870;13.660;2023-04-01T07:33:33;99411.94;;;8.02
53412;BMP280;39307;52.870;13.660;2023-04-01T07:36:31;99413.56;;;8.03
53412;BMP280;39307;52.870;13.660;2023-04-01T07:44:15;99424.75;;;7.97
53412;BMP280;39307;52.870;13.660;2023-04-01T07:47:05;99428.53;;;7.88
53412;BMP280;39307;52.870;13.660;2023-04-01T07:52:19;99432.97;;;7.94
53412;BMP280;39307;52.870;13.660;2023-04-01T07:55:10;99436.75;;;7.91
53412;BMP280;39307;52.870;13.660;2023-04-01T08:00:37;99438.31;;;8.32
53412;BMP280;39307;52.870;13.660;2023-04-01T08:03:16;99444.88;;;8.15
53412;BMP280;39307;52.870;13.660;2023-04-01T08:06:00;99452.91;;;8.07
53412;BMP280;39307;52.870;13.660;2023-04-01T08:09:46;99449.22;;;8.02
53412;BMP280;39307;52.870;13.660;2023-04-01T08:11:59;99454.03;;;7.99
53412;BMP280;39307;52.870;13.660;2023-04-01T08:14:41;99457.31;;;8.13
53412;BMP280;39307;52.870;13.660;2023-04-01T08:22:45;99458.38;;;8.38
53412;BMP280;39307;52.870;13.660;2023-04-01T08:25:24;99455.53;;;8.20
53412;BMP280;39307;52.870;13.660;2023-04-01T08:31:11;99471.94;;;8.14
53412;BMP280;39307;52.870;13.660;2023-04-01T08:33:34;99470.59;;;8.25
53412;BMP280;39307;52.870;13.660;2023-04-01T08:36:25;99474.19;;;8.24
53412;BMP280;39307;52.870;13.660;2023-04-01T08:38:57;99473.59;;;8.22
53412;BMP280;39307;52.870;13.660;2023-04-01T08:47:34;99483.56;;;8.18
53412;BMP280;39307;52.870;13.660;2023-04-01T08:56:17;99492.03;;;8.27
53412;BMP280;39307;52.870;13.660;2023-04-01T08:58:54;99498.66;;;8.29
53412;BMP280;39307;52.870;13.660;2023-04-01T09:22:01;99519.84;;;8.07
53412;BMP280;39307;52.870;13.660;2023-04-01T09:27:04;99523.28;;;8.20
53412;BMP280;39307;52.870;13.660;2023-04-01T09:29:48;99529.16;;;8.29
53412;BMP280;39307;52.870;13.660;2023-04-01T09:38:04;99538.25;;;8.05
53412;BMP280;39307;52.870;13.660;2023-04-01T09:40:55;99532.50;;;8.16
53412;BMP280;39307;52.870;13.660;2023-04-01T09:54:46;99552.25;;;8.38
53412;BMP280;39307;52.870;13.660;2023-04-01T09:57:39;99553.03;;;8.45
53412;BMP280;39307;52.870;13.660;2023-04-01T10:00:20;99563.84;;;8.29
53412;BMP280;39307;52.870;13.660;2023-04-01T10:03:20;99572.44;;;8.23
53412;BMP280;39307;52.870;13.660;2023-04-01T10:06:27;99581.19;;;8.09
53412;BMP280;39307;52.870;13.660;2023-04-01T10:09:26;99578.44;;;8.17
53412;BMP280;39307;52.870;13.660;2023-04-01T10:22:50;99581.69;;;8.26
53412;BMP280;39307;52.870;13.660;2023-04-01T10:25:34;99584.41;;;8.11
53412;BMP280;39307;52.870;13.660;2023-04-01T10:28:19;99593.06;;;8.18
53412;BMP280;39307;52.870;13.660;2023-04-01T10:31:49;99582.72;;;8.31
53412;BMP280;39307;52.870;13.660;2023-04-01T10:36:57;99590.97;;;8.47
53412;BMP280;39307;52.870;13.660;2023-04-01T10:51:10;99595.13;;;8.29
53412;BMP280;39307;52.870;13.660;2023-04-01T11:02:45;99590.22;;;8.60
53412;BMP280;39307;52.870;13.660;2023-04-01T11:05:50;99611.69;;;8.55
53412;BMP280;39307;52.870;13.660;2023-04-01T11:08:30;99612.06;;;8.52
53412;BMP280;39307;52.870;13.660;2023-04-01T11:16:49;99624.97;;;8.20
53412;BMP280;39307;52.870;13.660;2023-04-01T11:19:49;99629.78;;;8.23
53412;BMP280;39307;52.870;13.660;2023-04-01T11:28:05;99637.66;;;8.36
53412;BMP280;39307;52.870;13.660;2023-04-01T11:30:59;99641.63;;;8.26
53412;BMP280;39307;52.870;13.660;2023-04-01T11:36:57;99647.44;;;8.28
53412;BMP280;39307;52.870;13.660;2023-04-01T11:44:46;99651.84;;;8.27
53412;BMP280;39307;52.870;13.660;2023-04-01T11:47:42;99659.78;;;8.07
53412;BMP280;39307;52.870;13.660;2023-04-01T11:50:23;99668.41;;;8.07
53412;BMP280;39307;52.870;13.660;2023-04-01T11:58:58;99678.66;;;8.15
53412;BMP280;39307;52.870;13.660;2023-04-01T12:02:03;99670.06;;;8.21
53412;BMP280;39307;52.870;13.660;2023-04-01T12:04:50;99679.91;;;8.19
53412;BMP280;39307;52.870;13.660;2023-04-01T12:07:50;99679.63;;;8.07
53412;BMP280;39307;52.870;13.660;2023-04-01T12:10:51;99685.44;;;8.09
53412;BMP280;39307;52.870;13.660;2023-04-01T12:24:45;99697.38;;;7.98
53412;BMP280;39307;52.870;13.660;2023-04-01T12:28:04;99696.91;;;7.88
53412;BMP280;39307;52.870;13.660;2023-04-01T12:33:40;99707.16;;;7.69
53412;BMP280;39307;52.870;13.660;2023-04-01T12:47:30;99713.97;;;7.70
53412;BMP280;39307;52.870;13.660;2023-04-01T12:52:44;99732.34;;;7.82
53412;BMP280;39307;52.870;13.660;2023-04-01T13:09:04;99760.00;;;7.42
53412;BMP280;39307;52.870;13.660;2023-04-01T13:12:07;99764.03;;;7.45
53412;BMP280;39307;52.870;13.660;2023-04-01T13:15:04;99759.00;;;7.64
53412;BMP280;39307;52.870;13.660;2023-04-01T13:28:29;99778.25;;;7.63
53412;BMP280;39307;52.870;13.660;2023-04-01T13:31:24;99777.25;;;7.64
53412;BMP280;39307;52.870;13.660;2023-04-01T13:34:00;99791.41;;;7.55
53412;BMP280;39307;52.870;13.660;2023-04-01T13:39:27;99798.44;;;7.61
53412;BMP280;39307;52.870;13.660;2023-04-01T13:42:18;99790.91;;;7.66
53412;BMP280;39307;52.870;13.660;2023-04-01T13:45:12;99803.88;;;7.59
53412;BMP280;39307;52.870;13.660;2023-04-01T13:50:39;99801.59;;;7.36
53412;BMP280;39307;52.870;13.660;2023-04-01T13:58:38;99810.28;;;7.43
53412;BMP280;39307;52.870;13.660;2023-04-01T14:10:03;99823.78;;;7.32
53412;BMP280;39307;52.870;13.660;2023-04-01T14:12:46;99830.38;;;7.14
53412;BMP280;39307;52.870;13.660;2023-04-01T14:24:06;99837.94;;;7.44
53412;BMP280;39307;52.870;13.660;2023-04-01T14:29:51;99852.44;;;7.32
53412;BMP280;39307;52.870;13.660;2023-04-01T14:35:31;99858.66;;;7.17
53412;BMP280;39307;52.870;13.660;2023-04-01T14:41:11;99861.41;;;7.29
53412;BMP280;39307;52.870;13.660;2023-04-01T14:47:20;99877.03;;;7.15
53412;BMP280;39307;52.870;13.660;2023-04-01T14:58:16;99879.91;;;7.06
53412;BMP280;39307;52.870;13.660;2023-04-01T15:00:58;99878.38;;;7.11
53412;BMP280;39307;52.870;13.660;2023-04-01T15:03:36;99901.09;;;6.89
53412;BMP280;39307;52.870;13.660;2023-04-01T15:06:43;99906.03;;;6.84
53412;BMP280;39307;52.870;13.660;2023-04-01T15:23:27;99909.00;;;6.95
53412;BMP280;39307;52.870;13.660;2023-04-01T15:31:50;99927.19;;;6.81
53412;BMP280;39307;52.870;13.660;2023-04-01T15:34:42;99936.69;;;6.74
53412;BMP280;39307;52.870;13.660;2023-04-01T15:43:03;99950.66;;;6.59
53412;BMP280;39307;52.870;13.660;2023-04-01T15:51:09;99960.38;;;6.42
53412;BMP280;39307;52.870;13.660;2023-04-01T15:56:28;99969.22;;;6.70
53412;BMP280;39307;52.870;13.660;2023-04-01T15:59:39;99977.97;;;6.55
53412;BMP280;39307;52.870;13.660;2023-04-01T16:05:27;99985.56;;;6.42
53412;BMP280;39307;52.870;13.660;2023-04-01T16:14:36;99995.50;;;6.38
53412;BMP280;39307;52.870;13.660;2023-04-01T16:25:44;100017.75;;;6.19
53412;BMP280;39307;52.870;13.660;2023-04-01T16:28:25;100027.63;;;6.15
53412;BMP280;39307;52.870;13.660;2023-04-01T16:31:02;100025.47;;;6.27
53412;BMP280;39307;52.870;13.660;2023-04-01T16:36:37;100047.03;;;6.05
53412;BMP280;39307;52.870;13.660;2023-04-01T16:42:39;100058.44;;;5.96
53412;BMP280;39307;52.870;13.660;2023-04-01T16:47:50;100061.09;;;5.80
53412;BMP280;39307;52.870;13.660;2023-04-01T16:50:24;100074.75;;;5.67
53412;BMP280;39307;52.870;13.660;2023-04-01T16:53:14;100071.38;;;5.74
53412;BMP280;39307;52.870;13.660;2023-04-01T16:55:56;100081.22;;;5.78
53412;BMP280;39307;52.870;13.660;2023-04-01T16:58:37;100080.28;;;5.72
53412;BMP280;39307;52.870;13.660;2023-04-01T17:01:12;100085.13;;;5.67
53412;BMP280;39307;52.870;13.660;2023-04-01T17:07:01;100097.28;;;5.82
53412;BMP280;39307;52.870;13.660;2023-04-01T17:12:27;100110.16;;;5.60
53412;BMP280;39307;52.870;13.660;2023-04-01T17:15:29;100108.34;;;5.68
53412;BMP280;39307;52.870;13.660;2023-04-01T17:26:20;100132.72;;;5.59
53412;BMP280;39307;52.870;13.660;2023-04-01T17:31:50;100142.28;;;5.59
53412;BMP280;39307;52.870;13.660;2023-04-01T17:34:33;100145.50;;;5.61
53412;BMP280;39307;52.870;13.660;2023-04-01T17:40:30;100161.78;;;5.23
53412;BMP280;39307;52.870;13.660;2023-04-01T17:49:19;100173.47;;;5.43
53412;BMP280;39307;52.870;13.660;2023-04-01T17:52:01;100176.06;;;5.43
53412;BMP280;39307;52.870;13.660;2023-04-01T17:54:51;100188.06;;;5.28
53412;BMP280;39307;52.870;13.660;2023-04-01T17:57:52;100187.75;;;5.31
53412;BMP280;39307;52.870;13.660;2023-04-01T18:00:30;100195.53;;;5.31
53412;BMP280;39307;52.870;13.660;2023-04-01T18:06:10;100203.13;;;5.17
53412;BMP280;39307;52.870;13.660;2023-04-01T18:09:28;100206.53;;;5.10
53412;BMP280;39307;52.870;13.660;2023-04-01T18:14:45;100222.09;;;5.02
53412;BMP280;39307;52.870;13.660;2023-04-01T18:17:25;100224.19;;;5.06
53412;BMP280;39307;52.870;13.660;2023-04-01T18:20:22;100233.72;;;4.90
53412;BMP280;39307;52.870;13.660;2023-04-01T18:25:45;100244.91;;;4.83
53412;BMP280;39307;52.870;13.660;2023-04-01T18:28:38;100247.53;;;4.98
53412;BMP280;39307;52.870;13.660;2023-04-01T18:31:15;100249.66;;;5.03
53412;BMP280;39307;52.870;13.660;2023-04-01T18:55:52;100295.88;;;4.59
53412;BMP280;39307;52.870;13.660;2023-04-01T18:58:54;100313.72;;;4.69
53412;BMP280;39307;52.870;13.660;2023-04-01T19:01:42;100304.38;;;4.84
53412;BMP280;39307;52.870;13.660;2023-04-01T19:04:39;100308.75;;;4.84
53412;BMP280;39307;52.870;13.660;2023-04-01T19:10:19;100326.16;;;4.58
53412;BMP280;39307;52.870;13.660;2023-04-01T19:13:01;100327.19;;;4.73
53412;BMP280;39307;52.870;13.660;2023-04-01T19:15:44;100335.13;;;4.71
53412;BMP280;39307;52.870;13.660;2023-04-01T19:24:04;100344.13;;;4.59
53412;BMP280;39307;52.870;13.660;2023-04-01T19:26:39;100345.91;;;4.59
53412;BMP280;39307;52.870;13.660;2023-04-01T19:34:46;100366.25;;;4.46
53412;BMP280;39307;52.870;13.660;2023-04-01T19:37:31;100374.34;;;4.43
53412;BMP280;39307;52.870;13.660;2023-04-01T19:42:50;100391.22;;;4.47
53412;BMP280;39307;52.870;13.660;2023-04-01T19:45:41;100384.63;;;4.60
53412;BMP280;39307;52.870;13.660;2023-04-01T19:51:03;100400.25;;;4.43
53412;BMP280;39307;52.870;13.660;2023-04-01T19:53:51;100402.84;;;4.43
53412;BMP280;39307;52.870;13.660;2023-04-01T19:56:19;100398.41;;;4.36
53412;BMP280;39307;52.870;13.660;2023-04-01T19:58:58;100404.88;;;4.32
53412;BMP280;39307;52.870;13.660;2023-04-01T20:02:00;100409.88;;;4.33
53412;BMP280;39307;52.870;13.660;2023-04-01T20:04:40;100419.81;;;4.38
53412;BMP280;39307;52.870;13.660;2023-04-01T20:07:31;100421.88;;;4.09
53412;BMP280;39307;52.870;13.660;2023-04-01T20:10:16;100434.88;;;4.17
53412;BMP280;39307;52.870;13.660;2023-04-01T20:13:20;100436.88;;;4.06
53412;BMP280;39307;52.870;13.660;2023-04-01T20:16:08;100446.25;;;4.24
53412;BMP280;39307;52.870;13.660;2023-04-01T20:21:34;100452.78;;;4.11
53412;BMP280;39307;52.870;13.660;2023-04-01T20:24:16;100452.19;;;4.17
53412;BMP280;39307;52.870;13.660;2023-04-01T20:26:51;100453.81;;;4.18
53412;BMP280;39307;52.870;13.660;2023-04-01T20:29:37;100467.88;;;4.15
53412;BMP280;39307;52.870;13.660;2023-04-01T20:43:29;100488.44;;;4.00
53412;BMP280;39307;52.870;13.660;2023-04-01T20:46:20;100489.41;;;3.99
53412;BMP280;39307;52.870;13.660;2023-04-01T20:51:39;100490.97;;;3.92
53412;BMP280;39307;52.870;13.660;2023-04-01T20:54:19;100492.75;;;4.08
53412;BMP280;39307;52.870;13.660;2023-04-01T21:05:08;100508.81;;;4.12
53412;BMP280;39307;52.870;13.660;2023-04-01T21:07:50;100506.22;;;3.95
53412;BMP280;39307;52.870;13.660;2023-04-01T21:10:50;100512.41;;;3.84
53412;BMP280;39307;52.870;13.660;2023-04-01T21:25:21;100538.50;;;4.17
53412;BMP280;39307;52.870;13.660;2023-04-01T21:31:15;100554.84;;;4.01
53412;BMP280;39307;52.870;13.660;2023-04-01T21:34:05;100559.81;;;3.85
53412;BMP280;39307;52.870;13.660;2023-04-01T21:36:52;100568.66;;;3.92
53412;BMP280;39307;52.870;13.660;2023-04-01T21:39:47;100566.88;;;3.92
53412;BMP280;39307;52.870;13.660;2023-04-01T21:48:01;100567.25;;;3.97
53412;BMP280;39307;52.870;13.660;2023-04-01T21:50:50;100577.47;;;3.99
53412;BMP280;39307;52.870;13.660;2023-04-01T22:02:34;100588.88;;;4.05
53412;BMP280;39307;52.870;13.660;2023-04-01T22:05:26;100603.19;;;3.83
53412;BMP280;39307;52.870;13.660;2023-04-01T22:08:27;100605.38;;;3.78
53412;BMP280;39307;52.870;13.660;2023-04-01T22:13:39;100617.47;;;3.87
53412;BMP280;39307;52.870;13.660;2023-04-01T22:19:04;100619.84;;;3.71
53412;BMP280;39307;52.870;13.660;2023-04-01T22:21:52;100626.28;;;3.67
53412;BMP280;39307;52.870;13.660;2023-04-01T22:24:37;100627.69;;;3.88
53412;BMP280;39307;52.870;13.660;2023-04-01T22:33:16;100638.66;;;3.73
53412;BMP280;39307;52.870;13.660;2023-04-01T22:47:55;100659.22;;;3.74
53412;BMP280;39307;52.870;13.660;2023-04-01T22:50:38;100675.91;;;3.53
53412;BMP280;39307;52.870;13.660;2023-04-01T22:53:38;100665.22;;;3.75
53412;BMP280;39307;52.870;13.660;2023-04-01T22:56:24;100673.38;;;3.80
53412;BMP280;39307;52.870;13.660;2023-04-01T22:59:08;100668.09;;;3.63
53412;BMP280;39307;52.870;13.660;2023-04-01T23:01:43;100668.91;;;3.63
53412;BMP280;39307;52.870;13.660;2023-04-01T23:04:16;100674.59;;;3.85
53412;BMP280;39307;52.870;13.660;2023-04-01T23:06:49;100672.31;;;3.73
53412;BMP280;39307;52.870;13.660;2023-04-01T23:09:28;100681.75;;;3.65
53412;BMP280;39307;52.870;13.660;2023-04-01T23:11:59;100684.75;;;3.51
53412;BMP280;39307;52.870;13.660;2023-04-01T23:14:41;100688.72;;;3.45
53412;BMP280;39307;52.870;13.660;2023-04-01T23:23:11;100703.97;;;3.58
53412;BMP280;39307;52.870;13.660;2023-04-01T23:26:15;100695.31;;;3.85